createdAt,value
2022-11-01T00:02:17.238Z,28.98
2022-11-01T00:07:16.704Z,26.75
2022-11-01T00:12:20.332Z,30.30
2022-11-01T00:17:19.767Z,36.10
2022-11-01T00:22:18.608Z,30.88
2022-11-01T00:27:19.094Z,29.00
2022-11-01T00:32:19.636Z,36.55
2022-11-01T00:37:18.660Z,23.27
2022-11-01T00:42:18.084Z,24.67
2022-11-01T00:47:17.486Z,22.98
2022-11-01T00:52:19.684Z,21.13
2022-11-01T00:57:18.969Z,22.25
2022-11-01T01:02:18.203Z,19.58
2022-11-01T01:07:19.691Z,16.65
2022-11-01T01:12:19.178Z,21.02
2022-11-01T01:17:18.037Z,23.23
2022-11-01T01:22:18.587Z,21.08
2022-11-01T01:27:18.848Z,23.13
2022-11-01T01:32:19.870Z,21.40
2022-11-01T01:37:24.254Z,17.77
2022-11-01T01:42:32.420Z,22.42
2022-11-01T01:47:35.316Z,20.15
2022-11-01T01:52:40.570Z,18.02
2022-11-01T01:57:43.073Z,19.42
2022-11-01T02:07:47.499Z,21.85
2022-11-01T02:12:48.512Z,18.88
2022-11-01T02:18:12.418Z,15.25
2022-11-01T02:23:49.769Z,13.95
2022-11-01T02:29:05.924Z,18.80
2022-11-01T02:34:14.460Z,16.38
2022-11-01T02:39:24.178Z,16.48
2022-11-01T02:44:31.274Z,15.85
2022-11-01T02:49:35.668Z,23.23
2022-11-01T02:54:40.044Z,18.33
2022-11-01T02:59:47.662Z,19.38
2022-11-01T03:04:49.385Z,22.88
2022-11-01T03:09:48.432Z,20.23
2022-11-01T03:14:55.017Z,20.75
2022-11-01T03:20:02.172Z,18.80
2022-11-01T03:25:30.690Z,19.20
2022-11-01T03:30:34.501Z,22.33
2022-11-01T03:35:40.178Z,17.00
2022-11-01T03:40:44.198Z,20.38
2022-11-01T03:45:44.445Z,22.17
2022-11-01T03:50:50.616Z,16.48
2022-11-01T03:55:50.036Z,21.05
2022-11-01T04:00:49.402Z,20.83
2022-11-01T04:05:50.657Z,21.90
2022-11-01T04:10:49.742Z,18.52
2022-11-01T04:16:02.891Z,15.35
2022-11-01T04:26:05.713Z,21.40
2022-11-01T04:31:04.815Z,15.73
2022-11-01T04:36:08.027Z,15.68
2022-11-01T04:41:07.330Z,16.00
2022-11-01T04:46:06.739Z,18.50
2022-11-01T04:51:11.221Z,19.25
2022-11-01T04:56:10.596Z,15.77
2022-11-01T05:01:10.110Z,23.33
2022-11-01T05:06:10.795Z,20.60
2022-11-01T05:11:14.267Z,17.08
2022-11-01T05:16:20.175Z,18.10
2022-11-01T05:21:23.064Z,18.08
2022-11-01T05:26:28.251Z,21.70
2022-11-01T05:31:29.929Z,25.20
2022-11-01T05:36:35.036Z,28.13
2022-11-01T05:41:34.838Z,20.10
2022-11-01T05:46:35.284Z,23.05
2022-11-01T05:51:41.467Z,27.35
2022-11-01T05:56:42.505Z,31.40
2022-11-01T06:01:41.832Z,27.02
2022-11-01T06:06:42.649Z,33.28
2022-11-01T06:11:42.117Z,33.50
2022-11-01T06:16:42.230Z,34.47
2022-11-01T06:21:43.096Z,31.25
2022-11-01T06:26:42.485Z,23.42
2022-11-01T06:31:42.005Z,41.22
2022-11-01T06:36:45.701Z,33.70
2022-11-01T06:41:44.871Z,24.50
2022-11-01T06:46:47.617Z,29.85
2022-11-01T06:51:48.781Z,31.60
2022-11-01T06:56:49.060Z,27.85
2022-11-01T07:01:48.661Z,32.42
2022-11-01T07:06:49.528Z,34.42
2022-11-01T07:11:48.460Z,28.75
2022-11-01T07:16:47.685Z,28.90
2022-11-01T07:21:49.881Z,34.28
2022-11-01T07:26:49.255Z,26.65
2022-11-01T07:31:48.914Z,31.40
2022-11-01T07:36:49.458Z,27.98
2022-11-01T07:41:51.394Z,31.60
2022-11-01T07:46:50.542Z,31.20
2022-11-01T07:51:50.881Z,32.15
2022-11-01T07:56:49.892Z,34.40
2022-11-01T08:01:49.047Z,30.33
2022-11-01T08:06:49.778Z,35.97
2022-11-01T08:11:52.564Z,30.65
2022-11-01T08:16:55.833Z,28.83
2022-11-01T08:21:55.335Z,269.20
2022-11-01T08:26:56.151Z,31.67
2022-11-01T08:31:55.126Z,24.90
2022-11-01T08:36:54.096Z,28.63
2022-11-01T08:41:53.265Z,26.25
2022-11-01T08:46:55.825Z,26.40
2022-11-01T08:51:55.660Z,29.25
2022-11-01T08:56:54.522Z,28.30
2022-11-01T09:01:54.877Z,30.50
2022-11-01T09:06:53.848Z,34.60
2022-11-01T09:11:53.003Z,26.98
2022-11-01T09:16:52.064Z,29.08
2022-11-01T09:21:52.711Z,19.23
2022-11-01T09:26:51.624Z,20.77
2022-11-01T09:31:52.595Z,20.92
2022-11-01T09:36:52.814Z,20.67
2022-11-01T09:41:54.796Z,24.38
2022-11-01T09:46:59.721Z,16.70
2022-11-01T09:52:03.022Z,14.07
2022-11-01T09:57:12.465Z,15.93
2022-11-01T10:02:48.821Z,13.50
2022-11-01T10:08:00.980Z,15.52
2022-11-01T10:13:21.999Z,15.18
2022-11-01T10:18:28.344Z,13.88
2022-11-01T10:23:36.916Z,12.25
2022-11-01T10:28:45.932Z,9.30
2022-11-01T10:33:50.938Z,12.20
2022-11-01T10:39:52.563Z,13.25
2022-11-01T10:44:17.614Z,9.40
2022-11-01T10:49:24.540Z,6.65
2022-11-01T10:54:29.819Z,11.75
2022-11-01T10:59:35.241Z,10.60
2022-11-01T11:04:34.485Z,10.45
2022-11-01T11:09:35.908Z,12.45
2022-11-01T11:14:36.339Z,10.52
2022-11-01T11:19:38.509Z,12.77
2022-11-01T11:24:40.639Z,13.68
2022-11-01T11:29:48.613Z,10.13
2022-11-01T11:34:54.609Z,13.27
2022-11-01T11:40:17.206Z,11.75
2022-11-01T11:45:24.507Z,12.98
2022-11-01T11:50:32.559Z,12.48
2022-11-01T11:55:44.647Z,9.18
2022-11-01T12:01:31.736Z,17.73
2022-11-01T12:06:48.710Z,15.90
2022-11-01T12:11:52.514Z,12.35
2022-11-01T12:16:52.138Z,9.75
2022-11-01T12:22:15.689Z,12.85
2022-11-01T12:33:45.896Z,11.38
2022-11-01T12:38:53.112Z,11.18
2022-11-01T12:44:22.751Z,16.08
2022-11-01T12:49:31.688Z,13.93
2022-11-01T12:54:37.348Z,14.90
2022-11-01T12:59:39.472Z,13.35
2022-11-01T13:10:21.716Z,12.00
2022-11-01T13:15:30.140Z,15.63
2022-11-01T13:20:45.303Z,14.63
2022-11-01T13:25:52.567Z,13.50
2022-11-01T13:31:02.956Z,11.82
2022-11-01T13:36:07.093Z,13.65
2022-11-01T13:41:19.741Z,12.43
2022-11-01T13:46:33.022Z,14.43
2022-11-01T13:51:41.552Z,9.90
2022-11-01T13:56:45.729Z,15.02
2022-11-01T14:01:46.484Z,11.80
2022-11-01T14:06:52.512Z,12.93
2022-11-01T14:11:54.953Z,12.23
2022-11-01T14:17:23.358Z,14.57
2022-11-01T14:22:29.165Z,12.48
2022-11-01T14:27:36.246Z,10.85
2022-11-01T14:32:36.556Z,12.25
2022-11-01T14:37:43.910Z,70.50
2022-11-01T14:42:46.252Z,215.77
2022-11-01T14:47:47.459Z,265.50
2022-11-01T14:52:52.491Z,194.38
2022-11-01T14:57:52.025Z,78.88
2022-11-01T15:02:53.199Z,58.13
2022-11-01T15:07:54.418Z,45.88
2022-11-01T15:12:57.752Z,38.55
2022-11-01T15:18:01.772Z,44.17
2022-11-01T15:23:05.475Z,34.13
2022-11-01T15:28:04.759Z,31.90
2022-11-01T15:33:23.274Z,29.48
2022-11-01T15:38:22.338Z,30.85
2022-11-01T15:43:23.650Z,43.67
2022-11-01T15:48:26.942Z,39.03
2022-11-01T15:53:29.404Z,38.80
2022-11-01T15:58:33.094Z,37.13
2022-11-01T16:03:38.863Z,34.08
2022-11-01T16:08:42.480Z,48.15
2022-11-01T16:13:41.404Z,62.60
2022-11-01T16:18:45.214Z,47.70
2022-11-01T16:23:51.361Z,42.35
2022-11-01T16:28:51.976Z,42.10
2022-11-01T16:33:52.168Z,34.45
2022-11-01T16:38:52.321Z,34.42
2022-11-01T16:43:59.731Z,34.90
2022-11-01T16:49:04.277Z,39.95
2022-11-01T16:54:03.091Z,31.95
2022-11-01T16:59:09.426Z,30.88
2022-11-01T17:04:13.213Z,39.83
2022-11-01T17:09:14.294Z,36.20
2022-11-01T17:14:14.066Z,41.73
2022-11-01T17:19:23.312Z,70.10
2022-11-01T17:24:27.564Z,43.63
2022-11-01T17:29:27.141Z,51.42
2022-11-01T17:34:29.055Z,50.47
2022-11-01T17:39:30.102Z,50.58
2022-11-01T17:44:29.108Z,41.60
2022-11-01T17:49:29.516Z,42.58
2022-11-01T17:54:28.680Z,45.30
2022-11-01T17:59:28.092Z,43.10
2022-11-01T18:04:33.904Z,38.30
2022-11-01T18:09:35.818Z,36.25
2022-11-01T18:14:49.151Z,37.30
2022-11-01T18:19:57.154Z,32.78
2022-11-01T18:25:02.923Z,28.27
2022-11-01T18:30:08.990Z,23.77
2022-11-01T18:35:20.969Z,26.23
2022-11-01T18:40:30.645Z,28.30
2022-11-01T18:45:39.753Z,31.60
2022-11-01T18:50:46.564Z,30.80
2022-11-01T18:55:50.066Z,34.90
2022-11-01T19:01:00.207Z,28.08
2022-11-01T19:06:13.793Z,43.88
2022-11-01T19:11:16.100Z,37.70
2022-11-01T19:16:18.208Z,33.45
2022-11-01T19:21:22.463Z,38.35
2022-11-01T19:26:27.042Z,40.35
2022-11-01T19:31:29.240Z,34.58
2022-11-01T19:41:46.872Z,34.63
2022-11-01T19:46:45.854Z,31.00
2022-11-01T19:51:46.369Z,28.55
2022-11-01T19:56:50.873Z,27.55
2022-11-01T20:01:51.860Z,26.50
2022-11-01T20:07:01.330Z,23.02
2022-11-01T20:12:01.663Z,26.17
2022-11-01T20:17:03.178Z,22.73
2022-11-01T20:22:05.079Z,24.65
2022-11-01T20:27:05.586Z,30.97
2022-11-01T20:32:08.771Z,22.42
2022-11-01T20:37:28.535Z,20.23
2022-11-01T20:42:29.982Z,19.38
2022-11-01T20:47:32.173Z,21.35
2022-11-01T20:52:42.226Z,18.38
2022-11-01T20:57:41.218Z,24.70
2022-11-01T21:02:43.420Z,22.50
2022-11-01T21:07:47.979Z,25.60
2022-11-01T21:12:50.834Z,19.33
2022-11-01T21:17:52.760Z,21.20
2022-11-01T21:22:57.891Z,27.50
2022-11-01T21:27:57.083Z,27.05
2022-11-01T21:32:58.704Z,25.52
2022-11-01T21:38:33.915Z,31.98
2022-11-01T21:43:36.016Z,20.30
2022-11-01T21:48:35.312Z,19.63
2022-11-01T21:53:41.408Z,23.95
2022-11-01T21:58:42.875Z,23.27
2022-11-01T22:03:53.263Z,18.17
2022-11-01T22:08:58.765Z,20.80
2022-11-01T22:13:58.261Z,19.42
2022-11-01T22:19:52.297Z,16.17
2022-11-01T22:25:12.998Z,15.18
2022-11-01T22:30:15.887Z,17.63
2022-11-01T22:35:16.903Z,17.65
2022-11-01T22:40:23.174Z,17.35
2022-11-01T22:45:22.593Z,13.93
2022-11-01T22:50:32.678Z,16.23
2022-11-01T22:55:53.176Z,14.93
2022-11-01T23:00:52.828Z,16.38
2022-11-01T23:05:57.101Z,15.45
2022-11-01T23:11:07.009Z,15.95
2022-11-01T23:16:22.126Z,18.35
2022-11-01T23:21:25.627Z,15.60
2022-11-01T23:26:29.832Z,15.00
2022-11-01T23:31:32.567Z,17.17
2022-11-01T23:36:39.334Z,14.65
2022-11-01T23:47:13.208Z,17.02
2022-11-01T23:52:29.754Z,16.08
2022-11-01T23:57:45.161Z,16.23
